Relevés horaires Matro (Suisse)


Relevés horaires à Matro - Mardi 18 Nov. 2014
Heure UTC1 Température [°C] Vent [km/h] Hum. [%] Pres.4 [hPa] Visi. [Km] Nébu. [octa] Préc.5 [mm] Cond.
2m. Res. Ros. Dir.2 Vit. Moy. Raf.3
23:00 -2.8 -9.1 -9.7 NO 22.2 22.2 25.9 59 850(0.5/3h) -- -- -- --
22:00 -2.8 -8.2 -9.5 NO 16.7 16.7 20.4 60 850(0.5/3h) -- -- -- --
21:00 -3.0 -7.7 -8.9 NNO 13.0 16.7 24.1 64 850(0.7/3h) -- -- -- --
20:00 -2.5 -6.1 -9.4 NO 9.3 13.0 14.8 59 850(1.2/3h) -- -- -- --
19:00 -2.5 -6.1 -9.7 ONO 9.3 16.7 24.1 58 850(1.4/3h) -- -- -- --
18:00 -2.9 -8.7 -9.6 NO 18.5 27.8 31.5 60 850(1.3/3h) -- -- -- --
17:00 -3.2 -9.9 -9.3 NNO 24.1 27.8 31.5 63 850(1.0/3h) -- -- -- --
16:00 -3.2 -10.1 -9.1 NNO 25.9 25.9 31.5 64 850(0.8/3h) -- -- -- --
15:00 -2.6 -8.3 -7.8 NNO 18.5 18.5 24.1 67 850(0.6/3h) -- -- -- --
14:00 -2.3 -7.2 -7.3 NNO 14.8 16.7 20.4 68 850(0.4/3h) -- -- -- --
13:00 -2.2 -7.5 -8.6 NNO 16.7 16.7 20.4 61 850(0.5/3h) -- -- -- --
12:00 -2.5 -7.1 -7.5 NO 13.0 37.0 50.0 68 850(0.7/3h) -- -- -- --
11:00 -2.0 -6.5 -8.9 NO 13.0 18.5 24.1 59 850(0.8/3h) -- -- -- --
10:00 -2.1 -8.2 -8.7 NO 22.2 22.2 27.8 60 850(1.0/3h) -- -- -- --
09:00 -2.6 -9.1 -8.2 NNO 24.1 37.0 50.0 65 850(1.2/3h) -- -- -- --
08:00 -2.8 -9.4 -8.0 NO 24.1 25.9 44.4 67 850(1.3/3h) -- -- -- --
07:00 -2.8 -9.9 -8.3 NO 27.8 37.0 50.0 66 850(1.3/3h) -- -- -- --
06:00 -2.4 -10.2 -8.6 NO 35.2 35.2 48.2 62 850(1.0/3h) -- -- -- --
05:00 -2.4 -9.6 -8.1 NO 29.6 31.5 40.7 65 850(0.9/3h) -- -- -- --
04:00 -2.5 -9.7 -7.3 NO 29.6 31.5 46.3 69 850(0.2/3h) -- -- -- --
03:00 -2.2 -8.9 -6.6 NO 25.9 27.8 37.0 72 850(-0.1/3h) -- -- -- --
02:00 -2.3 -8.5 -5.3 NO 22.2 27.8 37.0 80 850(-0.4/3h) -- -- -- --
01:00 -2.3 -8.5 -4.5 NO 22.2 24.1 33.3 85 850(-0.2/3h) -- -- -- --
00:00 -2.5 -9 -3.7 NO 24.1 24.1 31.5 91 850(-0.2/3h) -- -- -- --

1 Coordinated Universal Time. Actuellement il est 22:00 locale et 20:00 UTC.

2 Le vent souffle depuis la direction indiquée vers la direction oposée.

3 Les rafales max. sont disponible 40 min après l'heure du relevé.

4 Pour les stations d'altitude (plus de 600m) le géopotentiel du niveau le plus proche de la pression obligatoire est indiqué.

5 Les stations disposant d'un diffuseur peuvent indiquer "trace". Cela signifie que des précipitations ont touchés le sol mais que la quantité est inférieure à 0.1 mm.

Copyright

Les données affichées sur cette page sont la propriété exclusive de Météo Suisse.

Récapitulatif de la journée
Température [°C] Vent [km/h] Ensoleillement4 [h] Precipitations totale5 [mm] Pression [Hpa]
Min1 Max.2 Moy.3 Max. Min Max.
-3.3 -1.8 24.9 50.0 5 h 18 min 0 850.0 850.0

1 Température minimale relevée entre 18:00 UTC la veille et 18:00 UTC le jour donné.

2 Température maximale relevée entre 06:00 UTC le jour donné et 06:00 UTC le lendemain.

3 Vent moyen de la journée basé sur les relevés horaires.

4 Ensoleillement en heures relevé entre 06:00 UTC la veille et 06:00 UTC le jour donné.

5 Précipitations totales tombées entre 06:00 UTC la jour donné et 06:00 UTC le lendemain.

Graphiques horaires